createdAt,value
2018-09-05T00:00:33.868Z,87.82
2018-09-05T00:01:34.097Z,87.82
2018-09-05T00:02:34.327Z,88.02
2018-09-05T00:03:34.557Z,87.73
2018-09-05T00:04:34.785Z,88.40
2018-09-05T00:05:35.015Z,87.82
2018-09-05T00:06:35.246Z,87.82
2018-09-05T00:07:35.478Z,88.02
2018-09-05T00:08:35.703Z,87.92
2018-09-05T00:09:35.935Z,87.92
2018-09-05T00:10:36.166Z,88.11
2018-09-05T00:11:36.395Z,87.82
2018-09-05T00:12:36.628Z,88.21
2018-09-05T00:13:36.854Z,87.40
2018-09-05T00:14:37.083Z,87.78
2018-09-05T00:15:37.312Z,87.44
2018-09-05T00:16:37.542Z,87.15
2018-09-05T00:17:37.773Z,87.68
2018-09-05T00:18:38.001Z,86.54
2018-09-05T00:19:38.230Z,86.82
2018-09-05T00:20:38.460Z,87.30
2018-09-05T00:21:38.694Z,86.63
2018-09-05T00:22:38.927Z,86.44
2018-09-05T00:23:39.150Z,86.05
2018-09-05T00:24:39.381Z,86.34
2018-09-05T00:25:39.611Z,86.34
2018-09-05T00:26:39.843Z,85.86
2018-09-05T00:27:40.067Z,85.96
2018-09-05T00:28:40.296Z,85.77
2018-09-05T00:29:40.525Z,86.05
2018-09-05T00:30:40.756Z,85.77
2018-09-05T00:31:40.985Z,85.96
2018-09-05T00:32:41.222Z,85.67
2018-09-05T00:33:41.451Z,85.86
2018-09-05T00:34:41.678Z,85.67
2018-09-05T00:35:41.909Z,85.28
2018-09-05T00:36:42.138Z,85.58
2018-09-05T00:37:42.371Z,85.67
2018-09-05T00:38:42.600Z,85.86
2018-09-05T00:39:42.828Z,85.77
2018-09-05T00:40:43.059Z,84.91
2018-09-05T00:41:43.290Z,85.10
2018-09-05T00:42:43.521Z,84.91
2018-09-05T00:43:43.750Z,85.10
2018-09-05T00:44:43.979Z,85.15
2018-09-05T00:45:44.209Z,85.00
2018-09-05T00:46:44.449Z,85.25
2018-09-05T00:47:44.674Z,85.10
2018-09-05T00:48:44.905Z,84.86
2018-09-05T00:49:45.133Z,84.38
2018-09-05T00:50:45.363Z,84.91
2018-09-05T00:51:45.594Z,84.28
2018-09-05T00:52:45.822Z,84.58
2018-09-05T00:53:46.045Z,84.67
2018-09-05T00:54:46.275Z,84.48
2018-09-05T00:55:46.505Z,84.48
2018-09-05T00:56:46.731Z,84.48
2018-09-05T00:57:46.961Z,84.77
2018-09-05T00:58:47.191Z,84.77
2018-09-05T00:59:47.418Z,84.58
2018-09-05T01:00:47.648Z,83.91
2018-09-05T01:01:47.877Z,84.00
2018-09-05T01:02:48.117Z,84.00
2018-09-05T01:03:48.333Z,84.48
2018-09-05T01:04:48.563Z,84.09
2018-09-05T01:05:48.793Z,83.42
2018-09-05T01:06:49.024Z,83.61
2018-09-05T01:07:49.253Z,84.00
2018-09-05T01:08:49.480Z,84.19
2018-09-05T01:09:49.705Z,84.38
2018-09-05T01:10:49.926Z,83.61
2018-09-05T01:11:50.156Z,83.67
2018-09-05T01:12:50.389Z,82.90
2018-09-05T01:13:50.614Z,83.38
2018-09-05T01:14:50.845Z,83.58
2018-09-05T01:15:51.074Z,83.67
2018-09-05T01:16:51.307Z,82.81
2018-09-05T01:17:51.534Z,83.38
2018-09-05T01:18:51.763Z,83.19
2018-09-05T01:19:51.989Z,82.81
2018-09-05T01:20:52.217Z,83.29
2018-09-05T01:21:52.446Z,82.62
2018-09-05T01:22:52.679Z,82.71
2018-09-05T01:23:52.908Z,82.62
2018-09-05T01:24:53.137Z,82.62
2018-09-05T01:25:53.366Z,82.62
2018-09-05T01:26:53.593Z,82.71
2018-09-05T01:27:53.825Z,82.32
2018-09-05T01:28:54.063Z,82.38
2018-09-05T01:29:54.282Z,81.75
2018-09-05T01:30:54.516Z,82.81
2018-09-05T01:31:54.745Z,82.62
2018-09-05T01:32:54.971Z,81.81
2018-09-05T01:33:55.200Z,82.19
2018-09-05T01:34:55.430Z,82.19
2018-09-05T01:35:55.666Z,83.05
2018-09-05T01:36:55.894Z,82.48
2018-09-05T01:37:56.130Z,82.00
2018-09-05T01:38:56.357Z,82.42
2018-09-05T01:39:56.586Z,82.29
2018-09-05T01:40:56.815Z,82.09
2018-09-05T01:41:57.043Z,81.81
2018-09-05T01:42:57.270Z,82.57
2018-09-05T01:43:57.497Z,82.00
2018-09-05T01:44:57.729Z,82.00
2018-09-05T01:45:57.957Z,81.81
2018-09-05T01:46:58.187Z,82.00
2018-09-05T01:47:58.415Z,81.81
2018-09-05T01:48:58.643Z,81.33
2018-09-05T01:49:58.898Z,80.94
2018-09-05T01:50:59.131Z,81.04
2018-09-05T01:51:59.360Z,80.85
2018-09-05T01:52:59.590Z,81.43
2018-09-05T01:53:59.824Z,81.43
2018-09-05T01:55:00.044Z,81.81
2018-09-05T01:56:00.273Z,81.23
2018-09-05T01:57:00.501Z,81.71
2018-09-05T01:58:00.727Z,80.94
2018-09-05T01:59:00.960Z,81.23
2018-09-05T02:00:01.189Z,80.94
2018-09-05T02:01:01.419Z,80.94
2018-09-05T02:02:01.647Z,80.94
2018-09-05T02:03:01.877Z,81.33
2018-09-05T02:04:02.106Z,81.04
2018-09-05T02:05:02.337Z,80.47
2018-09-05T02:06:02.566Z,80.85
2018-09-05T02:07:02.806Z,81.23
2018-09-05T02:08:03.026Z,80.94
2018-09-05T02:09:03.256Z,80.85
2018-09-05T02:10:03.479Z,81.13
2018-09-05T02:11:03.695Z,81.33
2018-09-05T02:12:03.926Z,81.13
2018-09-05T02:13:04.158Z,80.94
2018-09-05T02:14:04.383Z,80.90
2018-09-05T02:15:04.612Z,80.04
2018-09-05T02:16:04.842Z,79.75
2018-09-05T02:17:05.070Z,79.57
2018-09-05T02:18:05.297Z,79.95
2018-09-05T02:19:05.529Z,81.00
2018-09-05T02:20:05.759Z,80.90
2018-09-05T02:21:05.988Z,80.90
2018-09-05T02:22:06.220Z,80.62
2018-09-05T02:23:06.448Z,79.57
2018-09-05T02:24:06.677Z,79.66
2018-09-05T02:25:06.907Z,79.66
2018-09-05T02:26:07.137Z,79.57
2018-09-05T02:27:07.365Z,79.33
2018-09-05T02:28:07.593Z,79.37
2018-09-05T02:29:07.828Z,79.57
2018-09-05T02:30:08.056Z,79.47
2018-09-05T02:31:08.284Z,79.08
2018-09-05T02:32:08.513Z,78.61
2018-09-05T02:33:08.738Z,79.08
2018-09-05T02:34:08.968Z,79.75
2018-09-05T02:35:09.198Z,79.66
2018-09-05T02:36:09.432Z,79.85
2018-09-05T02:37:09.659Z,79.75
2018-09-05T02:38:09.889Z,80.52
2018-09-05T02:39:10.119Z,80.14
2018-09-05T02:40:10.355Z,79.85
2018-09-05T02:41:10.574Z,79.37
2018-09-05T02:42:10.803Z,79.75
2018-09-05T02:43:11.027Z,79.75
2018-09-05T02:44:11.254Z,79.75
2018-09-05T02:45:11.485Z,79.37
2018-09-05T02:46:11.708Z,80.04
2018-09-05T02:47:11.937Z,80.14
2018-09-05T02:48:12.167Z,79.66
2018-09-05T02:49:12.396Z,79.62
2018-09-05T02:50:12.621Z,79.05
2018-09-05T02:51:12.851Z,79.43
2018-09-05T02:52:13.080Z,79.52
2018-09-05T02:53:13.319Z,79.43
2018-09-05T02:54:13.535Z,79.52
2018-09-05T02:55:13.763Z,78.76
2018-09-05T02:56:13.997Z,78.57
2018-09-05T02:57:14.225Z,78.76
2018-09-05T02:58:14.452Z,79.33
2018-09-05T02:59:14.683Z,79.05
2018-09-05T03:00:14.912Z,79.33
2018-09-05T03:01:15.141Z,79.52
2018-09-05T03:02:15.372Z,79.72
2018-09-05T03:03:15.603Z,79.05
2018-09-05T03:04:15.825Z,78.86
2018-09-05T03:05:16.059Z,79.62
2018-09-05T03:06:16.287Z,79.52
2018-09-05T03:07:16.519Z,80.00
2018-09-05T03:08:16.747Z,79.62
2018-09-05T03:09:16.980Z,80.10
2018-09-05T03:10:17.207Z,80.00
2018-09-05T03:11:17.433Z,79.91
2018-09-05T03:12:17.661Z,79.81
2018-09-05T03:13:17.893Z,80.00
2018-09-05T03:14:18.123Z,80.10
2018-09-05T03:15:18.351Z,79.14
2018-09-05T03:16:18.579Z,79.62
2018-09-05T03:17:18.809Z,79.62
2018-09-05T03:18:19.040Z,78.76
2018-09-05T03:19:19.268Z,79.52
2018-09-05T03:20:19.502Z,79.33
2018-09-05T03:21:19.729Z,79.81
2018-09-05T03:22:19.961Z,79.72
2018-09-05T03:23:20.234Z,79.39
2018-09-05T03:24:20.416Z,78.63
2018-09-05T03:25:20.647Z,77.95
2018-09-05T03:26:20.877Z,78.05
2018-09-05T03:27:21.098Z,78.14
2018-09-05T03:28:21.334Z,77.80
2018-09-05T03:29:21.561Z,78.05
2018-09-05T03:30:21.792Z,78.38
2018-09-05T03:31:22.025Z,78.19
2018-09-05T03:32:22.518Z,78.47
2018-09-05T03:33:22.479Z,78.05
2018-09-05T03:34:22.710Z,78.47
2018-09-05T03:35:22.939Z,77.80
2018-09-05T03:36:23.175Z,77.70
2018-09-05T03:37:23.397Z,77.09
2018-09-05T03:38:23.623Z,77.33
2018-09-05T03:39:23.855Z,77.23
2018-09-05T03:40:24.084Z,77.04
2018-09-05T03:41:24.315Z,77.76
2018-09-05T03:42:24.545Z,77.86
2018-09-05T03:43:24.785Z,77.51
2018-09-05T03:44:25.002Z,76.94
2018-09-05T03:45:25.237Z,77.09
2018-09-05T03:46:25.464Z,76.52
2018-09-05T03:47:25.692Z,76.81
2018-09-05T03:48:25.919Z,76.23
2018-09-05T03:49:26.145Z,76.04
2018-09-05T03:50:26.375Z,75.95
2018-09-05T03:51:26.603Z,76.04
2018-09-05T03:52:26.840Z,75.85
2018-09-05T03:53:27.070Z,75.89
2018-09-05T03:54:27.297Z,76.04
2018-09-05T03:55:27.526Z,75.76
2018-09-05T03:56:27.751Z,75.56
2018-09-05T03:57:27.975Z,75.70
2018-09-05T03:58:28.210Z,75.95
2018-09-05T03:59:28.435Z,76.18
2018-09-05T04:00:28.669Z,76.14
2018-09-05T04:01:28.909Z,75.66
2018-09-05T04:02:29.120Z,75.27
2018-09-05T04:03:29.348Z,75.18
2018-09-05T04:04:29.576Z,74.99
2018-09-05T04:05:29.805Z,74.80
2018-09-05T04:06:30.033Z,74.70
2018-09-05T04:07:30.260Z,74.84
2018-09-05T04:08:30.486Z,75.09
2018-09-05T04:09:30.718Z,75.22
2018-09-05T04:10:30.944Z,75.41
2018-09-05T04:11:31.164Z,75.31
2018-09-05T04:12:31.413Z,75.22
2018-09-05T04:13:31.641Z,75.18
2018-09-05T04:14:31.876Z,75.09
2018-09-05T04:15:32.107Z,75.18
2018-09-05T04:16:32.331Z,75.02
2018-09-05T04:17:32.561Z,75.12
2018-09-05T04:18:32.792Z,75.02
2018-09-05T04:19:33.021Z,75.31
2018-09-05T04:20:33.253Z,74.84
2018-09-05T04:21:33.484Z,75.12
2018-09-05T04:22:33.711Z,75.12
2018-09-05T04:23:33.942Z,75.31
2018-09-05T04:24:34.168Z,75.02
2018-09-05T04:25:34.395Z,75.22
2018-09-05T04:26:34.625Z,75.31
2018-09-05T04:27:34.862Z,75.22
2018-09-05T04:28:35.082Z,74.84
2018-09-05T04:29:35.366Z,75.22
2018-09-05T04:30:35.544Z,75.12
2018-09-05T04:31:35.773Z,75.02
2018-09-05T04:32:36.007Z,74.93
2018-09-05T04:33:36.226Z,74.65
2018-09-05T04:34:36.454Z,74.65
2018-09-05T04:35:36.678Z,74.26
2018-09-05T04:36:36.912Z,74.65
2018-09-05T04:37:37.143Z,74.65
2018-09-05T04:38:37.373Z,74.55
2018-09-05T04:39:37.599Z,75.02
2018-09-05T04:40:37.826Z,75.22
2018-09-05T04:41:38.058Z,75.51
2018-09-05T04:42:38.285Z,75.51
2018-09-05T04:43:38.519Z,75.22
2018-09-05T04:44:38.747Z,75.31
2018-09-05T04:45:38.969Z,75.02
2018-09-05T04:46:39.201Z,75.60
2018-09-05T04:47:39.430Z,75.12
2018-09-05T04:48:39.657Z,75.41
2018-09-05T04:49:39.883Z,75.31
2018-09-05T04:50:40.111Z,75.22
2018-09-05T04:51:40.345Z,75.31
2018-09-05T04:52:40.645Z,75.70
2018-09-05T04:53:40.807Z,75.60
2018-09-05T04:54:41.032Z,75.51
2018-09-05T04:55:41.262Z,75.98
2018-09-05T04:56:41.487Z,75.22
2018-09-05T04:57:41.717Z,75.31
2018-09-05T04:58:41.949Z,75.22
2018-09-05T04:59:42.178Z,75.41
2018-09-05T05:00:42.415Z,75.98
2018-09-05T05:01:42.641Z,75.98
2018-09-05T05:02:42.869Z,75.98
2018-09-05T05:03:43.099Z,75.79
2018-09-05T05:04:43.327Z,75.89
2018-09-05T05:05:43.606Z,76.27
2018-09-05T05:06:43.789Z,76.37
2018-09-05T05:07:44.017Z,75.98
2018-09-05T05:08:44.246Z,76.27
2018-09-05T05:09:44.474Z,76.08
2018-09-05T05:10:44.704Z,76.08
2018-09-05T05:11:44.935Z,76.27
2018-09-05T05:12:45.165Z,76.18
2018-09-05T05:13:45.393Z,76.27
2018-09-05T05:14:45.629Z,76.27
2018-09-05T05:15:45.857Z,76.27
2018-09-05T05:16:46.084Z,76.27
2018-09-05T05:17:46.313Z,76.94
2018-09-05T05:18:46.546Z,77.23
2018-09-05T05:19:46.775Z,77.42
2018-09-05T05:20:47.006Z,76.89
2018-09-05T05:21:47.231Z,77.08
2018-09-05T05:22:47.459Z,77.17
2018-09-05T05:23:47.687Z,77.26
2018-09-05T05:24:47.917Z,77.55
2018-09-05T05:25:48.148Z,77.65
2018-09-05T05:26:48.377Z,77.26
2018-09-05T05:27:48.610Z,77.33
2018-09-05T05:28:48.836Z,76.89
2018-09-05T05:29:49.073Z,77.08
2018-09-05T05:30:49.293Z,77.46
2018-09-05T05:31:49.534Z,77.17
2018-09-05T05:32:49.809Z,77.08
2018-09-05T05:33:49.982Z,77.75
2018-09-05T05:34:50.211Z,78.03
2018-09-05T05:35:50.444Z,77.65
2018-09-05T05:36:50.689Z,78.22
2018-09-05T05:37:50.947Z,78.22
2018-09-05T05:38:51.179Z,78.22
2018-09-05T05:39:51.410Z,78.22
2018-09-05T05:40:51.637Z,78.74
2018-09-05T05:41:51.866Z,78.99
2018-09-05T05:42:52.096Z,78.89
2018-09-05T05:43:52.324Z,78.99
2018-09-05T05:44:52.558Z,79.99
2018-09-05T05:45:52.782Z,80.18
2018-09-05T05:46:53.011Z,81.13
2018-09-05T05:47:53.236Z,81.04
2018-09-05T05:48:53.469Z,80.76
2018-09-05T05:49:53.699Z,80.08
2018-09-05T05:50:53.930Z,80.37
2018-09-05T05:51:54.164Z,79.03
2018-09-05T05:52:54.383Z,78.32
2018-09-05T05:53:54.612Z,78.13
2018-09-05T05:54:54.876Z,77.46
2018-09-05T05:55:55.068Z,77.36
2018-09-05T05:56:55.301Z,77.36
2018-09-05T05:57:55.530Z,77.26
2018-09-05T05:58:55.763Z,77.75
2018-09-05T05:59:55.989Z,78.27
2018-09-05T06:00:56.304Z,78.74
2018-09-05T06:01:56.445Z,78.27
2018-09-05T06:02:56.677Z,79.32
2018-09-05T06:03:56.898Z,79.41
2018-09-05T06:04:57.133Z,79.89
2018-09-05T06:05:57.439Z,80.27
2018-09-05T06:06:57.590Z,81.23
2018-09-05T06:07:57.814Z,81.23
2018-09-05T06:08:58.039Z,80.99
2018-09-05T06:09:58.269Z,81.75
2018-09-05T06:10:58.498Z,81.18
2018-09-05T06:11:58.734Z,81.08
2018-09-05T06:12:58.957Z,81.85
2018-09-05T06:13:59.191Z,82.14
2018-09-05T06:14:59.416Z,82.42
2018-09-05T06:15:59.646Z,82.23
2018-09-05T06:16:59.878Z,81.75
2018-09-05T06:18:00.155Z,81.27
2018-09-05T06:19:00.325Z,82.62
2018-09-05T06:20:00.558Z,82.90
2018-09-05T06:21:00.849Z,83.23
2018-09-05T06:22:01.016Z,83.23
2018-09-05T06:23:01.244Z,83.42
2018-09-05T06:24:01.510Z,84.19
2018-09-05T06:25:01.715Z,84.28
2018-09-05T06:26:01.945Z,84.48
2018-09-05T06:27:02.164Z,85.38
2018-09-05T06:28:02.394Z,85.34
2018-09-05T06:29:02.627Z,84.77
2018-09-05T06:30:02.856Z,85.86
2018-09-05T06:31:03.176Z,84.71
2018-09-05T06:32:03.316Z,84.52
2018-09-05T06:33:03.548Z,84.38
2018-09-05T06:34:03.790Z,83.14
2018-09-05T06:35:04.006Z,84.00
2018-09-05T06:36:04.237Z,83.23
2018-09-05T06:37:04.470Z,82.75
2018-09-05T06:38:04.695Z,82.75
2018-09-05T06:39:04.972Z,83.23
2018-09-05T06:40:05.159Z,83.04
2018-09-05T06:41:05.391Z,83.52
2018-09-05T06:42:05.632Z,83.23
2018-09-05T06:43:05.855Z,83.04
2018-09-05T06:44:06.088Z,82.75
2018-09-05T06:45:06.408Z,82.85
2018-09-05T06:46:06.558Z,82.56
2018-09-05T06:47:06.781Z,83.61
2018-09-05T06:48:07.012Z,83.42
2018-09-05T06:49:07.240Z,82.85
2018-09-05T06:50:07.468Z,83.75
2018-09-05T06:51:07.697Z,82.70
2018-09-05T06:52:07.927Z,83.18
2018-09-05T06:53:08.155Z,83.47
2018-09-05T06:54:08.390Z,83.47
2018-09-05T06:55:08.620Z,83.94
2018-09-05T06:56:08.844Z,85.04
2018-09-05T06:57:09.075Z,85.42
2018-09-05T06:58:09.338Z,84.85
2018-09-05T06:59:09.535Z,85.62
2018-09-05T07:00:09.772Z,85.71
2018-09-05T07:01:10.007Z,87.29
2018-09-05T07:02:10.228Z,87.10
2018-09-05T07:03:10.461Z,86.72
2018-09-05T07:04:10.697Z,86.14
2018-09-05T07:05:10.924Z,87.29
2018-09-05T07:06:11.155Z,87.49
2018-09-05T07:07:11.390Z,87.62
2018-09-05T07:08:11.619Z,88.59
2018-09-05T07:09:11.848Z,88.39
2018-09-05T07:10:12.079Z,88.63
2018-09-05T07:11:12.313Z,89.50
2018-09-05T07:12:12.541Z,89.98
2018-09-05T07:13:12.768Z,89.50
2018-09-05T07:14:13.041Z,90.55
2018-09-05T07:15:13.228Z,90.59
2018-09-05T07:16:13.457Z,89.92
2018-09-05T07:17:13.693Z,91.08
2018-09-05T07:18:13.925Z,90.79
2018-09-05T07:19:14.157Z,89.78
2018-09-05T07:20:14.382Z,90.79
2018-09-05T07:21:14.628Z,90.26
2018-09-05T07:22:14.841Z,90.45
2018-09-05T07:23:15.074Z,89.58
2018-09-05T07:24:15.301Z,90.35
2018-09-05T07:25:15.532Z,90.16
2018-09-05T07:26:15.760Z,90.88
2018-09-05T07:27:15.998Z,90.40
2018-09-05T07:28:16.269Z,90.55
2018-09-05T07:29:16.464Z,90.59
2018-09-05T07:30:16.740Z,90.59
2018-09-05T07:31:16.924Z,90.20
2018-09-05T07:32:17.161Z,89.68
2018-09-05T07:33:17.392Z,89.29
2018-09-05T07:34:17.626Z,89.97
2018-09-05T07:35:17.853Z,89.64
2018-09-05T07:36:18.095Z,90.06
2018-09-05T07:37:18.319Z,90.26
2018-09-05T07:38:18.553Z,90.73
2018-09-05T07:39:18.785Z,90.35
2018-09-05T07:40:19.016Z,90.30
2018-09-05T07:41:19.253Z,90.40
2018-09-05T07:42:19.476Z,90.97
2018-09-05T07:43:19.708Z,90.97
2018-09-05T07:44:19.941Z,90.69
2018-09-05T07:45:20.171Z,91.12
2018-09-05T07:46:20.406Z,91.31
2018-09-05T07:47:20.644Z,91.21
2018-09-05T07:48:20.868Z,91.21
2018-09-05T07:49:21.099Z,91.12
2018-09-05T07:50:21.329Z,90.78
2018-09-05T07:51:21.565Z,90.97
2018-09-05T07:52:21.796Z,91.06
2018-09-05T07:53:22.030Z,91.36
2018-09-05T07:54:22.260Z,91.36
2018-09-05T07:55:22.494Z,91.02
2018-09-05T07:56:22.729Z,91.60
2018-09-05T07:57:23.032Z,91.30
2018-09-05T07:58:23.193Z,90.77
2018-09-05T07:59:23.424Z,91.44
2018-09-05T08:00:23.658Z,90.44
2018-09-05T08:01:23.887Z,90.72
2018-09-05T08:02:24.120Z,90.67
2018-09-05T08:03:24.351Z,90.58
2018-09-05T08:04:24.588Z,91.54
2018-09-05T08:05:24.815Z,90.87
2018-09-05T08:06:25.049Z,90.82
2018-09-05T08:07:25.281Z,90.77
2018-09-05T08:08:25.511Z,90.63
2018-09-05T08:09:25.751Z,90.63
2018-09-05T08:10:25.977Z,91.06
2018-09-05T08:11:26.210Z,90.53
2018-09-05T08:12:26.443Z,91.02
2018-09-05T08:13:26.674Z,90.92
2018-09-05T08:14:26.910Z,91.02
2018-09-05T08:15:27.142Z,90.82
2018-09-05T08:16:27.376Z,91.35
2018-09-05T08:17:27.615Z,90.72
2018-09-05T08:18:27.848Z,90.87
2018-09-05T08:19:28.079Z,90.29
2018-09-05T08:20:28.316Z,90.77
2018-09-05T08:21:28.547Z,90.58
2018-09-05T08:22:28.782Z,90.38
2018-09-05T08:23:29.023Z,90.38
2018-09-05T08:24:29.247Z,90.19
2018-09-05T08:25:29.475Z,90.33
2018-09-05T08:26:29.707Z,90.05
2018-09-05T08:27:29.951Z,90.05
2018-09-05T08:28:30.174Z,90.00
2018-09-05T08:29:30.408Z,90.00
2018-09-05T08:30:30.640Z,89.85
2018-09-05T08:31:30.877Z,88.79
2018-09-05T08:32:31.111Z,89.07
2018-09-05T08:33:31.347Z,89.27
2018-09-05T08:34:31.580Z,89.65
2018-09-05T08:35:32.052Z,89.47
2018-09-05T08:36:32.262Z,89.85
2018-09-05T08:37:32.516Z,89.56
2018-09-05T08:38:32.580Z,88.69
2018-09-05T08:39:32.737Z,89.37
2018-09-05T08:40:32.971Z,89.85
2018-09-05T08:41:33.301Z,89.07
2018-09-05T08:42:33.438Z,88.98
2018-09-05T08:43:33.732Z,88.59
2018-09-05T08:44:33.947Z,88.40
2018-09-05T08:45:34.362Z,87.38
2018-09-05T08:46:34.370Z,86.61
2018-09-05T08:47:34.697Z,86.80
2018-09-05T08:48:34.906Z,86.80
2018-09-05T08:49:35.104Z,86.32
2018-09-05T08:50:35.305Z,86.32
2018-09-05T08:51:35.541Z,87.04
2018-09-05T08:52:35.777Z,86.46
2018-09-05T08:53:36.005Z,86.56
2018-09-05T08:54:36.241Z,85.98
2018-09-05T08:55:36.478Z,85.69
2018-09-05T08:56:36.710Z,85.69
2018-09-05T08:57:36.945Z,85.40
2018-09-05T08:58:37.243Z,85.25
2018-09-05T08:59:37.407Z,85.53
2018-09-05T09:00:37.650Z,84.67
2018-09-05T09:01:37.883Z,84.28
2018-09-05T09:02:38.114Z,84.38
2018-09-05T09:03:38.349Z,84.05
2018-09-05T09:04:38.635Z,84.91
2018-09-05T09:05:38.812Z,84.82
2018-09-05T09:06:39.046Z,85.78
2018-09-05T09:07:39.278Z,85.88
2018-09-05T09:08:39.521Z,85.21
2018-09-05T09:09:39.745Z,85.35
2018-09-05T09:10:39.981Z,84.82
2018-09-05T09:11:40.290Z,84.28
2018-09-05T09:12:40.447Z,84.57
2018-09-05T09:13:40.685Z,84.67
2018-09-05T09:14:40.916Z,84.28
2018-09-05T09:15:41.149Z,84.38
2018-09-05T09:16:41.386Z,84.09
2018-09-05T09:17:41.619Z,83.99
2018-09-05T09:18:41.855Z,84.09
2018-09-05T09:19:42.090Z,83.51
2018-09-05T09:20:42.326Z,83.89
2018-09-05T09:21:42.555Z,84.28
2018-09-05T09:22:42.786Z,84.28
2018-09-05T09:23:43.020Z,83.80
2018-09-05T09:24:43.256Z,83.99
2018-09-05T09:25:43.489Z,83.84
2018-09-05T09:26:43.721Z,84.28
2018-09-05T09:27:43.959Z,83.74
2018-09-05T09:28:44.188Z,84.52
2018-09-05T09:29:44.421Z,84.22
2018-09-05T09:30:44.654Z,82.00
2018-09-05T09:31:44.891Z,82.10
2018-09-05T09:32:45.122Z,81.81
2018-09-05T09:33:45.357Z,82.23
2018-09-05T09:34:45.590Z,81.46
2018-09-05T09:35:45.823Z,80.69
2018-09-05T09:36:46.053Z,80.49
2018-09-05T09:37:46.291Z,79.43
2018-09-05T09:38:46.521Z,80.44
2018-09-05T09:39:46.755Z,80.54
2018-09-05T09:40:46.993Z,78.99
2018-09-05T09:41:47.222Z,76.89
2018-09-05T09:42:47.462Z,76.41
2018-09-05T09:43:47.699Z,76.89
2018-09-05T09:44:47.926Z,76.21
2018-09-05T09:45:48.165Z,76.02
2018-09-05T09:46:48.396Z,76.12
2018-09-05T09:47:48.634Z,74.90
2018-09-05T09:48:48.865Z,71.70
2018-09-05T09:49:49.098Z,71.70
2018-09-05T09:50:49.336Z,71.22
2018-09-05T09:51:49.570Z,70.44
2018-09-05T09:52:49.802Z,69.89
2018-09-05T09:53:50.038Z,71.06
2018-09-05T09:54:50.273Z,68.18
2018-09-05T09:55:50.513Z,66.69
2018-09-05T09:56:50.747Z,65.95
2018-09-05T09:57:50.980Z,66.05
2018-09-05T09:58:51.217Z,65.85
2018-09-05T09:59:51.445Z,64.30
2018-09-05T10:00:51.682Z,64.33
2018-09-05T10:01:51.916Z,65.79
2018-09-05T10:02:52.146Z,64.43
2018-09-05T10:03:52.385Z,64.23
2018-09-05T10:04:52.665Z,64.33
2018-09-05T10:05:52.858Z,63.39
2018-09-05T10:06:53.100Z,63.20
2018-09-05T10:07:53.323Z,62.91
2018-09-05T10:08:53.562Z,62.52
2018-09-05T10:09:53.831Z,62.55
2018-09-05T10:10:54.034Z,60.68
2018-09-05T10:11:54.266Z,60.71
2018-09-05T10:12:54.502Z,60.68
2018-09-05T10:13:54.737Z,59.12
2018-09-05T10:14:55.020Z,60.19
2018-09-05T10:15:55.208Z,59.80
2018-09-05T10:16:55.484Z,60.71
2018-09-05T10:17:55.678Z,59.80
2018-09-05T10:18:55.915Z,59.92
2018-09-05T10:19:56.148Z,59.61
2018-09-05T10:20:56.447Z,59.74
2018-09-05T10:21:56.623Z,58.76
2018-09-05T10:22:56.860Z,57.89
2018-09-05T10:23:57.098Z,59.12
2018-09-05T10:24:57.334Z,58.93
2018-09-05T10:25:57.562Z,56.98
2018-09-05T10:26:57.797Z,57.86
2018-09-05T10:27:58.033Z,57.76
2018-09-05T10:28:58.288Z,57.93
2018-09-05T10:29:58.541Z,58.22
2018-09-05T10:30:58.780Z,57.83
2018-09-05T10:31:59.012Z,57.08
2018-09-05T10:32:59.250Z,56.30
2018-09-05T10:33:59.485Z,56.18
2018-09-05T10:34:59.714Z,56.28
2018-09-05T10:35:59.967Z,57.64
2018-09-05T10:37:00.194Z,56.64
2018-09-05T10:38:00.430Z,56.45
2018-09-05T10:39:00.664Z,57.80
2018-09-05T10:40:00.899Z,57.54
2018-09-05T10:41:01.138Z,57.73
2018-09-05T10:42:01.373Z,57.73
2018-09-05T10:43:01.607Z,57.64
2018-09-05T10:44:01.848Z,56.67
2018-09-05T10:45:02.085Z,56.60
2018-09-05T10:46:02.317Z,56.50
2018-09-05T10:47:02.550Z,57.47
2018-09-05T10:48:02.786Z,57.64
2018-09-05T10:49:03.023Z,57.93
2018-09-05T10:50:03.262Z,57.54
2018-09-05T10:51:03.498Z,57.06
2018-09-05T10:52:03.732Z,56.28
2018-09-05T10:53:03.965Z,56.28
2018-09-05T10:54:04.200Z,56.37
2018-09-05T10:55:04.437Z,56.47
2018-09-05T10:56:04.671Z,54.24
2018-09-05T10:57:04.906Z,55.02
2018-09-05T10:58:05.207Z,55.31
2018-09-05T10:59:05.376Z,54.85
2018-09-05T11:00:05.611Z,54.17
2018-09-05T11:01:05.847Z,53.49
2018-09-05T11:02:06.074Z,52.72
2018-09-05T11:03:06.314Z,51.75
2018-09-05T11:04:06.552Z,50.29
2018-09-05T11:05:06.788Z,50.77
2018-09-05T11:06:07.021Z,49.51
2018-09-05T11:07:07.255Z,49.32
2018-09-05T11:08:07.492Z,51.06
2018-09-05T11:09:07.727Z,51.55
2018-09-05T11:10:07.964Z,51.06
2018-09-05T11:11:08.198Z,51.26
2018-09-05T11:12:08.431Z,51.16
2018-09-05T11:13:08.669Z,52.13
2018-09-05T11:14:08.905Z,50.80
2018-09-05T11:15:09.141Z,50.99
2018-09-05T11:16:09.378Z,50.89
2018-09-05T11:17:09.613Z,50.21
2018-09-05T11:18:09.848Z,49.17
2018-09-05T11:19:10.093Z,48.57
2018-09-05T11:20:10.329Z,48.47
2018-09-05T11:21:10.582Z,48.08
2018-09-05T11:22:10.801Z,49.15
2018-09-05T11:23:11.040Z,48.75
2018-09-05T11:24:11.275Z,49.44
2018-09-05T11:25:11.510Z,49.92
2018-09-05T11:26:11.756Z,50.12
2018-09-05T11:27:11.990Z,50.21
2018-09-05T11:28:12.217Z,49.34
2018-09-05T11:29:12.452Z,49.73
2018-09-05T11:30:12.685Z,48.95
2018-09-05T11:31:12.920Z,49.63
2018-09-05T11:32:13.155Z,49.44
2018-09-05T11:33:13.393Z,49.37
2018-09-05T11:34:13.636Z,48.30
2018-09-05T11:35:13.865Z,48.20
2018-09-05T11:36:14.099Z,48.68
2018-09-05T11:37:14.367Z,47.81
2018-09-05T11:38:14.607Z,48.20
2018-09-05T11:39:14.842Z,48.20
2018-09-05T11:40:15.079Z,48.39
2018-09-05T11:41:15.315Z,48.61
2018-09-05T11:42:15.554Z,48.20
2018-09-05T11:43:15.790Z,47.34
2018-09-05T11:44:16.023Z,48.03
2018-09-05T11:45:16.264Z,48.13
2018-09-05T11:46:16.499Z,46.96
2018-09-05T11:47:16.746Z,47.93
2018-09-05T11:48:16.970Z,48.15
2018-09-05T11:49:17.205Z,47.86
2018-09-05T11:50:17.443Z,48.05
2018-09-05T11:51:17.679Z,48.13
2018-09-05T11:52:17.915Z,47.76
2018-09-05T11:53:18.153Z,46.96
2018-09-05T11:54:18.388Z,47.15
2018-09-05T11:55:18.620Z,47.83
2018-09-05T11:56:18.869Z,47.93
2018-09-05T11:57:19.103Z,47.91
2018-09-05T11:58:19.324Z,48.51
2018-09-05T11:59:19.559Z,49.29
2018-09-05T12:00:19.804Z,48.71
2018-09-05T12:01:20.033Z,47.93
2018-09-05T12:02:20.290Z,47.64
2018-09-05T12:03:20.505Z,47.44
2018-09-05T12:04:20.741Z,48.32
2018-09-05T12:05:20.975Z,47.74
2018-09-05T12:06:21.207Z,48.22
2018-09-05T12:07:21.445Z,48.51
2018-09-05T12:08:21.672Z,48.03
2018-09-05T12:09:21.905Z,48.13
2018-09-05T12:10:22.142Z,47.34
2018-09-05T12:11:22.376Z,47.34
2018-09-05T12:12:22.608Z,47.25
2018-09-05T12:13:22.849Z,47.05
2018-09-05T12:14:23.086Z,48.25
2018-09-05T12:15:23.318Z,47.05
2018-09-05T12:16:23.556Z,47.44
2018-09-05T12:17:23.784Z,47.25
2018-09-05T12:18:24.024Z,48.05
2018-09-05T12:19:24.262Z,48.13
2018-09-05T12:20:24.496Z,46.28
2018-09-05T12:21:24.728Z,47.08
2018-09-05T12:22:24.963Z,46.98
2018-09-05T12:23:25.204Z,47.08
2018-09-05T12:24:25.439Z,47.08
2018-09-05T12:25:25.674Z,47.08
2018-09-05T12:26:25.906Z,47.17
2018-09-05T12:27:26.142Z,46.88
2018-09-05T12:28:26.378Z,46.98
2018-09-05T12:29:26.612Z,47.20
2018-09-05T12:30:26.849Z,47.17
2018-09-05T12:31:27.096Z,47.27
2018-09-05T12:32:27.333Z,47.17
2018-09-05T12:33:27.570Z,47.08
2018-09-05T12:34:27.808Z,46.40
2018-09-05T12:35:28.043Z,46.59
2018-09-05T12:36:28.284Z,47.37
2018-09-05T12:37:28.517Z,46.78
2018-09-05T12:38:28.762Z,47.08
2018-09-05T12:39:29.002Z,47.37
2018-09-05T12:40:29.228Z,47.37
2018-09-05T12:41:29.460Z,47.66
2018-09-05T12:42:29.694Z,48.46
2018-09-05T12:43:29.936Z,46.78
2018-09-05T12:44:30.168Z,47.30
2018-09-05T12:45:30.399Z,46.81
2018-09-05T12:46:30.636Z,47.10
2018-09-05T12:47:30.874Z,47.10
2018-09-05T12:48:31.112Z,47.20
2018-09-05T12:49:31.344Z,47.00
2018-09-05T12:50:31.584Z,47.20
2018-09-05T12:51:31.817Z,48.07
2018-09-05T12:52:32.055Z,47.20
2018-09-05T12:53:32.940Z,47.39
2018-09-05T12:54:32.547Z,47.10
2018-09-05T12:55:32.780Z,47.00